Main page
METAR-TAF:

METAR-TAF

Airports :

Portorož Airport

Portorož, Slovenia

latitude: 45-31N, longitude: 013-34E, elevation: 95 m

Current weather observation

The report was made 29 minutes ago, at 12:00 UTC
Wind 6 kt from the Northeast, varying between North and East
Temperature 34°C
Humidity 36%
Pressure 1016 hPa
Visibility 10 km or more
no clouds below 1500 m and no cumulonimbus

METAR: LJPZ 081200Z 04006KT 010V100 CAVOK 34/17 Q1016

Time: 14:29 (12:29 UTC)

Forecast

The report was made 1 hour and 29 minutes ago, at 11:00 UTC
Forecast valid from 08 at 12 UTC to 08 at 21 UTC
Wind 5 kt from the East/Northeast
Visibility 10 km or more
no clouds below 1500 m and no cumulonimbus

TAF: LJPZ 081100Z 0812/0821 06005KT CAVOK

Weather observations and forecasts of more than 4000 airports (METAR and TAF reports).

The available stations are represented by yellow and red dots on the map.

Hover mouse over dot to see the name of the station.

Then click to see weather observations and forecasts.

To change the map : click on the green buttons with a black cross to zoom in, on the green button with a dash to zoom out, or on the green arrows for adjacent maps.


METAR-TAF: